Terminal Aerodrome Forecast
Issued by NWS

Home | Current Version | Previous Version | Text Only | Print | Product List | Glossary On
Versions: 1 2 3 4 5 6 7 8 9 10 11 12 13 14 15 16
000
FTAK31 PAJN 051100
TAFAWG
TAF
PAWG 051124Z 0512/0612 VRB03KT P6SM FEW070 FEW150
     FM051800 34006KT P6SM SKC
      AMD LTD TO CLD VIS AND WIND TIL 051500=

USA.gov is the U.S. government's official web portal to all federal, state and local government web resources and services.